Washington, District of Columbia
Traffic Map
Current Weather Conditions
Washington, District of Columbia
Broken Clouds
Broken Clouds
81°
Feels Like: 81°
Wind Chill: 81° Ceiling: 25000
Heat Index: 81° Visibility: 10mi
Dew Point: 59° Wind: 0mph
Humidity: 47% Direction: ° ()
Pressure: 30.17in Gusts: 0mph
Raw Report DataKDCA 211752Z 00000KT 10SM FEW050 SCT130 BKN250 27/15 A3017 RMK AO2 SLP215 T02720150 10272 20206 58015
Traffic Incident Summary
Active as of:
Severity:
Category:
InformationThere was an issue retrieving the traffic information for this location. Please try a different location or try again shortly.
Advertisements